Terminal Aerodrome Forecast
Issued by NWS

Home | Current Version | Previous Version | Graphics & Text | Print | Product List | Glossary On
Versions: 1 2 3 4 5 6 7 8 9 10 11 12 13 14 15 16 17 18 19 20 21 22 23 24 25 26 27 28 29
000
FTUS43 KLOT 230301 AAA
TAFORD
TAF AMD
KORD 230301Z 2303/2406 20012G17KT P6SM BKN030 BKN050
     FM230600 22012KT P6SM -SHRA SCT010 BKN020 BKN050
      TEMPO 2307/2310 4SM -TSRA BKN015CB BKN050
     FM231100 36011KT P6SM BKN015 BKN050
     FM231400 35010KT P6SM SCT020 BKN035
     FM231800 34011G18KT P6SM SCT035 BKN200=

USA.gov is the U.S. government's official web portal to all federal, state and local government web resources and services.